KALX/ALX METAR and TAF weather

Enter ICAO airport designator
Station Type Date Time Source
KALX METAR 2022/01/19 20:15 UTC NOAA

KALX 192015Z AUTO 13007KT 10SM SCT035 17/08 A3010 RMK AO2 LTG DSNT NW T01700079


Station Type Date Time Source
KALX Decoded METAR 2022/01/19 20:15 UTC NOAA

Alexander City, Thomas C Russell Field Airport, AL, United States (KALX) 32-54-53N 085-57-46W
Jan 19, 2022 - 03:15 PM EST / 2022.01.19 2015 UTC
Wind: from the SE (130 degrees) at 8 MPH (7 KT):0
Visibility: 10 mile(s):0
Sky conditions: partly cloudy
Weather: Lightning observed
Temperature: 62.6 F (17.0 C)
Dew Point: 46.2 F (7.9 C)
Relative Humidity: 54%
Pressure (altimeter): 30.1 in. Hg (1019 hPa)
ob: KALX 192015Z AUTO 13007KT 10SM SCT035 17/08 A3010 RMK AO2 LTG DSNT NW T01700079
cycle: 20

Station Type Date Time Source
KALX TAF UTC NOAA

Error!

Example: see airport list